METAR AND TAF INFORMATION
METAR FOR LGAL
ADDS - METARS form results

(1809 UTC 21 July 2019)
Data provider http://aviationweather.gov/metar/data/
 
METAR text: LGAL 211750Z VRB03KT 9999 FEW025 27/18 Q1016
Conditions at: LGAL (ALEXANDROUPOLIS , GR) observed 1750 UTC 21 July 2019
Temperature: 27.0°C (81°F)
Dewpoint: 18.0°C (64°F) [RH = 58%]
Pressure (altimeter): 30.00 inches Hg (1016.0 mb)
Winds: variable direction winds at 3 MPH (3 knots; 1.5 m/s)
Visibility: 6 or more miles (10+ km)
Ceiling: at least 12,000 feet AGL
Clouds: few clouds at 2500 feet AGL
Weather: no significant weather observed at this time

METAR text: LGAL 211720Z 23007KT 9999 FEW025 28/15 Q1016
Conditions at: LGAL (ALEXANDROUPOLIS , GR) observed 1720 UTC 21 July 2019
Temperature: 28.0°C (82°F)
Dewpoint: 15.0°C (59°F) [RH = 45%]
Pressure (altimeter): 30.00 inches Hg (1016.0 mb)
Winds: from the SW (230 degrees) at 8 MPH (7 knots; 3.6 m/s)
Visibility: 6 or more miles (10+ km)
Ceiling: at least 12,000 feet AGL
Clouds: few clouds at 2500 feet AGL
Weather: no significant weather observed at this time

Forecast for: LGAL (ALEXANDROUPOLIS , GR)
Text: TAF LGAL 211700Z 2118/2203 05015KT 9999 FEW020
Forecast period: 1800 UTC 21 July 2019 to 0300 UTC 22 July 2019
Forecast type: FROM: standard forecast or significant change
Winds: from the NE (50 degrees) at 17 MPH (15 knots; 7.7 m/s)
Visibility: 6 or more miles 10+ km)
Ceiling: at least 12,000 feet AGL
Clouds: few clouds at 2000 feet AGL
Weather: no significant weather forecast for this period

 ΧΑΡΤΗΣ ΑΕΡΟΔΡΟΜΙΟΥ

 RUNWAY INFORMATION
Διάδρομος 07 Runway length 8471 ft Runway width 148 ft
Runway elevation 10 ft Runway displaced threshold 0 ft Runway heading 73
Διάδρομος 25 Runway length 8471 ft Runway width 148 ft
Runway elevation 24 ft Runway displaced threshold 0 ft Runway heading 253

 ΣΥΧΝΟΤΗΤΕΣ ΑΕΡΟΔΡΟΜΙΟΥ
Τύπος A/G Όνομα ALEXANDROU Συχνότητα 563.7 MHZ
Τύπος APP Όνομα ALEXANDROU Συχνότητα 123.8 MHZ
Τύπος TWR Όνομα ALEXANDROU Συχνότητα 123.8 MHZ

 AIRPORT NEAR NAVIGATION AIDS
Τύπος NDB Όνομα Alexandroupolis Συχνότητα 351 KHZ
Τύπος VOR-DME Όνομα Alexandroupolis Συχνότητα 113800 KHZ



Hellenic Air Force Virtual - All rights reserved 2019 - Powered by VAM